createdAt,value
2023-02-12T00:00:03.838Z,5.97
2023-02-12T00:05:01.319Z,5.99
2023-02-12T00:10:01.620Z,5.99
2023-02-12T00:15:02.069Z,5.98
2023-02-12T00:20:02.260Z,6.02
2023-02-12T00:25:01.337Z,6.01
2023-02-12T00:30:01.854Z,6.06
2023-02-12T00:35:02.174Z,5.99
2023-02-12T00:40:01.360Z,5.91
2023-02-12T00:45:01.849Z,5.98
2023-02-12T00:50:01.537Z,6
2023-02-12T00:55:01.844Z,5.99
2023-02-12T01:00:02.122Z,5.93
2023-02-12T01:05:01.340Z,5.97
2023-02-12T01:10:01.654Z,6.06
2023-02-12T01:15:02.083Z,6.07
2023-02-12T01:20:02.159Z,6.1
2023-02-12T01:25:01.690Z,6.08
2023-02-12T01:30:01.784Z,6.1
2023-02-12T01:35:02.077Z,6.02
2023-02-12T01:40:02.242Z,6.02
2023-02-12T01:45:01.488Z,6
2023-02-12T01:50:01.855Z,6.08
2023-02-12T01:55:01.954Z,6.06
2023-02-12T02:00:02.139Z,6.08
2023-02-12T02:05:01.805Z,6.11
2023-02-12T02:10:01.469Z,6.11
2023-02-12T02:15:02.074Z,6.07
2023-02-12T02:20:01.357Z,6.11
2023-02-12T02:25:01.829Z,5.99
2023-02-12T02:30:01.393Z,5.96
2023-02-12T02:35:02.000Z,5.97
2023-02-12T02:40:02.110Z,6.01
2023-02-12T02:45:01.427Z,5.91
2023-02-12T02:50:01.382Z,5.94
2023-02-12T02:55:01.558Z,5.92
2023-02-12T03:00:01.943Z,5.84
2023-02-12T03:05:01.943Z,5.89
2023-02-12T03:10:02.226Z,5.92
2023-02-12T03:15:01.461Z,5.95
2023-02-12T03:20:02.131Z,5.9
2023-02-12T03:25:01.890Z,5.94
2023-02-12T03:30:01.789Z,5.97
2023-02-12T03:35:02.257Z,5.96
2023-02-12T03:40:01.872Z,5.98
2023-02-12T03:45:02.205Z,5.92
2023-02-12T03:50:02.177Z,5.93
2023-02-12T03:55:02.007Z,5.89
2023-02-12T04:00:01.969Z,5.96
2023-02-12T04:05:02.120Z,5.93
2023-02-12T04:10:02.226Z,5.91
2023-02-12T04:15:02.253Z,5.9
2023-02-12T04:20:02.233Z,5.93
2023-02-12T04:25:01.989Z,5.94
2023-02-12T04:30:02.077Z,5.98
2023-02-12T04:35:02.038Z,6
2023-02-12T04:40:02.035Z,5.99
2023-02-12T04:45:02.025Z,5.84
2023-02-12T04:50:01.288Z,5.87
2023-02-12T04:55:01.700Z,5.89
2023-02-12T05:00:01.693Z,6.01
2023-02-12T05:05:02.112Z,5.97
2023-02-12T05:10:02.245Z,5.96
2023-02-12T05:15:02.020Z,5.81
2023-02-12T05:20:02.182Z,5.79
2023-02-12T05:25:01.508Z,5.7
2023-02-12T05:30:02.079Z,5.83
2023-02-12T05:35:02.168Z,5.84
2023-02-12T05:40:02.157Z,5.8
2023-02-12T05:45:02.201Z,5.69
2023-02-12T05:50:02.261Z,5.69
2023-02-12T05:55:02.180Z,5.7
2023-02-12T06:00:02.207Z,5.66
2023-02-12T06:05:02.077Z,5.61
2023-02-12T06:10:01.288Z,5.75
2023-02-12T06:15:01.391Z,5.82
2023-02-12T06:20:01.784Z,5.72
2023-02-12T06:25:02.049Z,5.91
2023-02-12T06:30:01.742Z,5.72
2023-02-12T06:35:02.114Z,5.91
2023-02-12T06:40:02.143Z,5.83
2023-02-12T06:45:01.373Z,5.87
2023-02-12T06:50:02.014Z,5.86
2023-02-12T06:55:02.281Z,5.96
2023-02-12T07:00:02.198Z,5.89
2023-02-12T07:05:02.293Z,5.98
2023-02-12T07:10:01.434Z,5.86
2023-02-12T07:15:01.973Z,5.94
2023-02-12T07:20:01.362Z,5.97
2023-02-12T07:25:01.825Z,5.87
2023-02-12T07:30:02.214Z,6.01
2023-02-12T07:35:01.520Z,6.1
2023-02-12T07:40:00.300Z,6.17
2023-02-12T07:45:02.274Z,6.19
2023-02-12T07:50:01.464Z,6.22
2023-02-12T07:55:01.734Z,6.28
2023-02-12T08:00:01.701Z,6.33
2023-02-12T08:05:01.405Z,6.38
2023-02-12T08:10:02.104Z,6.42
2023-02-12T08:15:01.522Z,6.46
2023-02-12T08:20:02.191Z,6.55
2023-02-12T08:25:01.311Z,6.42
2023-02-12T08:30:01.998Z,6.54
2023-02-12T08:35:01.353Z,6.67
2023-02-12T08:40:01.577Z,6.73
2023-02-12T08:45:01.922Z,6.74
2023-02-12T08:50:02.261Z,6.76
2023-02-12T08:55:01.491Z,6.79
2023-02-12T09:00:01.715Z,6.65
2023-02-12T09:05:02.216Z,6.63
2023-02-12T09:10:01.300Z,6.66
2023-02-12T09:15:01.531Z,6.89
2023-02-12T09:20:01.958Z,6.69
2023-02-12T09:25:02.103Z,6.79
2023-02-12T09:30:01.984Z,6.93
2023-02-12T09:35:01.411Z,6.97
2023-02-12T09:40:01.429Z,7.03
2023-02-12T09:45:02.042Z,7.07
2023-02-12T09:50:02.204Z,7.11
2023-02-12T09:55:02.117Z,7.24
2023-02-12T10:00:01.559Z,7.22
2023-02-12T10:05:02.598Z,7.19
2023-02-12T10:10:02.112Z,7.38
2023-02-12T10:15:01.542Z,7.44
2023-02-12T10:20:02.272Z,7.38
2023-02-12T10:25:01.726Z,7.35
2023-02-12T10:30:02.183Z,7.52
2023-02-12T10:35:01.528Z,7.46
2023-02-12T10:40:01.946Z,7.52
2023-02-12T10:45:02.044Z,7.54
2023-02-12T10:50:01.291Z,7.52
2023-02-12T10:55:01.601Z,7.52
2023-02-12T11:00:01.932Z,7.65
2023-02-12T11:05:01.522Z,7.82
2023-02-12T11:10:02.014Z,7.92
2023-02-12T11:15:02.246Z,7.96
2023-02-12T11:20:02.197Z,8.01
2023-02-12T11:25:01.372Z,8.11
2023-02-12T11:30:01.781Z,8.18
2023-02-12T11:35:02.013Z,8.22
2023-02-12T11:40:02.079Z,8.19
2023-02-12T11:45:02.226Z,8.27
2023-02-12T11:50:01.724Z,8.35
2023-02-12T11:55:02.240Z,8.37
2023-02-12T12:00:01.526Z,8.5
2023-02-12T12:05:01.791Z,8.47
2023-02-12T12:10:02.051Z,8.33
2023-02-12T12:15:02.240Z,8.41
2023-02-12T12:20:01.716Z,8.5
2023-02-12T12:25:02.610Z,8.63
2023-02-12T12:30:01.561Z,8.73
2023-02-12T12:35:01.334Z,8.61
2023-02-12T12:40:01.850Z,8.64
2023-02-12T12:45:02.054Z,8.64
2023-02-12T12:50:02.227Z,8.76
2023-02-12T12:55:01.264Z,8.8
2023-02-12T13:00:01.919Z,8.73
2023-02-12T13:05:02.267Z,8.81
2023-02-12T13:10:01.515Z,8.86
2023-02-12T13:15:01.771Z,8.91
2023-02-12T13:20:02.384Z,9.03
2023-02-12T13:25:01.276Z,8.92
2023-02-12T13:30:01.803Z,8.88
2023-02-12T13:35:02.161Z,8.93
2023-02-12T13:40:02.248Z,8.95
2023-02-12T13:45:01.368Z,9
2023-02-12T13:50:01.807Z,9.07
2023-02-12T13:55:02.109Z,9.17
2023-02-12T14:00:01.781Z,9.1
2023-02-12T14:05:01.979Z,9.05
2023-02-12T14:10:02.211Z,9.08
2023-02-12T14:15:01.326Z,9.09
2023-02-12T14:20:02.014Z,9.11
2023-02-12T14:25:01.418Z,9.14
2023-02-12T14:30:01.828Z,9.07
2023-02-12T14:35:02.214Z,9.1
2023-02-12T14:40:01.668Z,9.08
2023-02-12T14:45:01.536Z,9.09
2023-02-12T14:50:01.892Z,9.08
2023-02-12T14:55:02.047Z,9.06
2023-02-12T15:00:02.228Z,9.04
2023-02-12T15:05:01.399Z,9.08
2023-02-12T15:10:01.808Z,9.02
2023-02-12T15:15:01.937Z,9.04
2023-02-12T15:20:01.450Z,9.05
2023-02-12T15:25:01.820Z,9.05
2023-02-12T15:30:01.885Z,9.06
2023-02-12T15:35:02.118Z,9.07
2023-02-12T15:40:01.494Z,9.09
2023-02-12T15:45:01.733Z,9.09
2023-02-12T15:50:02.028Z,9.11
2023-02-12T15:55:01.645Z,9.09
2023-02-12T16:00:01.892Z,9.09
2023-02-12T16:05:02.258Z,9.09
2023-02-12T16:10:02.228Z,9.08
2023-02-12T16:15:02.092Z,9.07
2023-02-12T16:20:01.374Z,9.04
2023-02-12T16:25:01.519Z,8.97
2023-02-12T16:30:01.697Z,8.97
2023-02-12T16:35:01.904Z,8.95
2023-02-12T16:40:02.056Z,8.91
2023-02-12T16:45:01.691Z,8.93
2023-02-12T16:50:01.450Z,8.89
2023-02-12T16:55:01.707Z,8.89
2023-02-12T17:00:02.037Z,8.89
2023-02-12T17:05:01.299Z,8.82
2023-02-12T17:10:01.935Z,8.82
2023-02-12T17:15:01.994Z,8.82
2023-02-12T17:20:01.358Z,8.71
2023-02-12T17:25:01.889Z,8.67
2023-02-12T17:30:01.886Z,8.68
2023-02-12T17:35:02.058Z,8.66
2023-02-12T17:40:01.999Z,8.66
2023-02-12T17:50:02.220Z,8.6
2023-02-12T17:55:02.054Z,8.57
2023-02-12T18:00:01.817Z,8.57
2023-02-12T18:05:02.265Z,8.49
2023-02-12T18:10:01.695Z,8.46
2023-02-12T18:15:01.902Z,8.46
2023-02-12T18:20:02.051Z,8.46
2023-02-12T18:25:01.314Z,8.47
2023-02-12T18:30:01.654Z,8.49
2023-02-12T18:35:01.842Z,8.48
2023-02-12T18:40:02.108Z,8.5
2023-02-12T18:45:02.181Z,8.51
2023-02-12T18:50:01.867Z,8.53
2023-02-12T18:55:02.113Z,8.53
2023-02-12T19:00:02.009Z,8.58
2023-02-12T19:05:02.178Z,8.57
2023-02-12T19:10:01.383Z,8.59
2023-02-12T19:15:01.917Z,8.57
2023-02-12T19:20:02.052Z,8.51
2023-02-12T19:25:02.128Z,8.5
2023-02-12T19:30:02.043Z,8.49
2023-02-12T19:35:01.413Z,8.49
2023-02-12T19:40:02.046Z,8.47
2023-02-12T19:45:02.245Z,8.47
2023-02-12T19:50:01.269Z,8.47
2023-02-12T19:55:01.488Z,8.45
2023-02-12T20:00:01.550Z,8.42
2023-02-12T20:05:01.492Z,8.42
2023-02-12T20:10:01.948Z,8.42
2023-02-12T20:15:01.980Z,8.42
2023-02-12T20:20:01.488Z,8.37
2023-02-12T20:25:01.918Z,8.35
2023-02-12T20:30:01.975Z,8.31
2023-02-12T20:35:02.130Z,8.31
2023-02-12T20:40:02.138Z,8.27
2023-02-12T20:45:01.512Z,8.27
2023-02-12T20:50:01.430Z,8.27
2023-02-12T20:55:01.915Z,8.27
2023-02-12T21:00:01.771Z,8.26
2023-02-12T21:05:01.555Z,8.23
2023-02-12T21:10:01.596Z,8.22
2023-02-12T21:15:01.722Z,8.21
2023-02-12T21:20:01.625Z,8.19
2023-02-12T21:25:02.195Z,8.15
2023-02-12T21:30:01.870Z,8.15
2023-02-12T21:35:01.727Z,8.13
2023-02-12T21:40:02.124Z,8.08
2023-02-12T21:45:02.173Z,8.09
2023-02-12T21:50:01.630Z,8.08
2023-02-12T21:55:01.894Z,8.06
2023-02-12T22:00:01.763Z,8.11
2023-02-12T22:05:02.086Z,8.06
2023-02-12T22:10:01.394Z,8.08
2023-02-12T22:15:02.082Z,8.04
2023-02-12T22:20:02.209Z,8.04
2023-02-12T22:25:02.159Z,8.03
2023-02-12T22:30:01.981Z,8.03
2023-02-12T22:35:02.081Z,8.02
2023-02-12T22:40:01.726Z,8.01
2023-02-12T22:45:02.007Z,8
2023-02-12T22:50:01.290Z,7.97
2023-02-12T22:55:01.786Z,7.97
2023-02-12T23:00:03.202Z,7.93
2023-02-12T23:05:06.169Z,7.91
2023-02-12T23:10:03.222Z,7.91
2023-02-12T23:15:01.423Z,7.93
2023-02-12T23:20:02.106Z,7.92
2023-02-12T23:25:02.243Z,7.92
2023-02-12T23:30:02.198Z,7.93
2023-02-12T23:35:02.310Z,7.93
2023-02-12T23:40:02.210Z,7.91
2023-02-12T23:45:02.104Z,7.91
2023-02-12T23:50:01.953Z,7.91
2023-02-12T23:55:01.365Z,7.88
